Time;durP1;ratioP1;P1;durP2;ratioP2;P2;SDS_P1;SDS_P2;PMS_P1;PMS_P2;Temp;Humidity;BMP_temperature;BMP_pressure;BME280_temperature;BME280_humidity;BME280_pressure;Samples;Min_cycle;Max_cycle;Signal;HPM_P1;HPM_P2
2023/09/20 00:02:12;;;;;;;2.33;1.77;;;17.10;99.90;;;;;;5035125;28;20578;-60
2023/09/20 00:04:41;;;;;;;2.37;1.83;;;17.10;99.90;;;;;;5036554;28;20465;-60
2023/09/20 00:07:10;;;;;;;3.57;1.90;;;17.10;99.90;;;;;;5035440;28;20509;-60
2023/09/20 00:09:40;;;;;;;1.83;1.50;;;17.10;99.90;;;;;;5035865;28;20522;-60
2023/09/20 00:12:08;;;;;;;1.83;1.60;;;17.20;99.90;;;;;;5035774;28;20586;-59
2023/09/20 00:14:36;;;;;;;3.13;1.93;;;17.20;99.90;;;;;;5037068;28;20505;-59
2023/09/20 00:17:04;;;;;;;3.10;2.23;;;17.20;99.90;;;;;;5031484;28;20620;-60
2023/09/20 00:19:34;;;;;;;3.67;1.93;;;17.20;99.90;;;;;;5035372;28;20942;-60
2023/09/20 00:22:03;;;;;;;3.03;2.67;;;17.20;99.90;;;;;;5031606;28;20971;-60
2023/09/20 00:24:33;;;;;;;2.23;1.60;;;17.20;99.90;;;;;;5036071;28;20497;-60
2023/09/20 00:27:03;;;;;;;2.30;1.70;;;17.30;99.90;;;;;;5037530;28;20497;-60
2023/09/20 00:29:31;;;;;;;3.20;1.80;;;17.30;99.90;;;;;;5036112;28;21400;-59
2023/09/20 00:31:59;;;;;;;3.83;1.93;;;17.30;99.90;;;;;;5035420;28;20494;-60
2023/09/20 00:34:28;;;;;;;4.00;1.70;;;17.30;99.90;;;;;;5038121;28;20550;-60
2023/09/20 00:36:56;;;;;;;2.47;1.60;;;17.40;99.90;;;;;;5036774;28;20515;-60
2023/09/20 00:39:24;;;;;;;4.73;1.50;;;17.30;99.90;;;;;;5033821;28;20494;-60
2023/09/20 00:41:52;;;;;;;1.90;1.70;;;17.40;99.90;;;;;;5032489;28;20819;-60
2023/09/20 00:44:22;;;;;;;3.73;2.20;;;17.40;99.90;;;;;;5033021;28;20475;-60
2023/09/20 00:46:50;;;;;;;2.80;1.63;;;17.40;99.90;;;;;;5030102;28;20581;-59
2023/09/20 00:49:18;;;;;;;2.20;1.77;;;17.40;99.90;;;;;;5034179;28;20467;-60
2023/09/20 00:51:47;;;;;;;4.90;2.00;;;17.40;99.90;;;;;;5030468;28;20586;-60
2023/09/20 00:54:17;;;;;;;2.60;1.60;;;17.50;99.90;;;;;;5028450;28;20926;-60
2023/09/20 00:56:45;;;;;;;4.00;1.97;;;17.40;99.90;;;;;;5030986;28;20819;-60
2023/09/20 00:59:15;;;;;;;2.73;1.83;;;17.40;99.90;;;;;;5030865;28;20483;-60
2023/09/20 01:01:44;;;;;;;6.33;1.87;;;17.40;99.90;;;;;;5024433;28;21117;-59
2023/09/20 01:04:13;;;;;;;3.87;1.97;;;17.40;99.90;;;;;;5028517;28;20466;-60
2023/09/20 01:06:42;;;;;;;1.97;1.83;;;17.40;99.90;;;;;;5029832;28;20482;-60
2023/09/20 01:09:13;;;;;;;2.30;2.10;;;17.40;99.90;;;;;;5025432;28;20597;-60
2023/09/20 01:11:41;;;;;;;2.57;1.80;;;17.40;99.90;;;;;;5031897;28;20494;-60
2023/09/20 01:14:11;;;;;;;3.03;1.77;;;17.40;99.90;;;;;;5030780;28;20794;-59
2023/09/20 01:16:39;;;;;;;3.93;2.13;;;17.40;99.90;;;;;;5030085;28;20583;-60
2023/09/20 01:19:09;;;;;;;7.67;2.90;;;17.40;99.90;;;;;;5030052;28;20561;-60
2023/09/20 01:21:42;;;;;;;2.53;1.70;;;17.40;99.90;;;;;;5029993;28;21047;-60
2023/09/20 01:24:11;;;;;;;2.97;2.00;;;17.40;99.90;;;;;;5033522;28;20471;-58
2023/09/20 01:26:41;;;;;;;5.93;2.10;;;17.40;99.90;;;;;;5031585;28;20588;-59
2023/09/20 01:29:09;;;;;;;1.70;1.60;;;17.40;99.90;;;;;;5033289;28;20498;-60
2023/09/20 01:31:38;;;;;;;3.43;1.70;;;17.40;99.90;;;;;;5033187;28;20568;-60
2023/09/20 01:34:06;;;;;;;2.30;1.77;;;17.40;99.90;;;;;;5035408;28;20468;-60
2023/09/20 01:36:34;;;;;;;3.50;1.87;;;17.50;99.90;;;;;;5031720;28;20490;-60
2023/09/20 01:39:09;;;;;;;3.17;1.90;;;17.50;99.90;;;;;;5031732;28;20471;-60
2023/09/20 01:41:37;;;;;;;4.17;2.20;;;17.50;99.90;;;;;;5028631;28;20482;-60
2023/09/20 01:44:06;;;;;;;3.87;1.80;;;17.50;99.90;;;;;;5031537;28;20580;-60
2023/09/20 01:46:36;;;;;;;2.43;2.20;;;17.50;99.90;;;;;;5030545;28;20856;-60
2023/09/20 01:49:06;;;;;;;2.80;2.00;;;17.60;99.90;;;;;;5032527;28;20937;-60
2023/09/20 01:51:34;;;;;;;5.83;1.90;;;17.60;99.90;;;;;;5032167;28;20565;-58
2023/09/20 01:54:04;;;;;;;3.93;2.07;;;17.60;99.90;;;;;;5033282;28;20558;-60
2023/09/20 01:56:32;;;;;;;3.17;2.10;;;17.60;99.90;;;;;;5030265;28;20790;-60
2023/09/20 01:59:00;;;;;;;2.37;2.00;;;17.60;99.90;;;;;;5031453;28;21065;-60
2023/09/20 02:01:30;;;;;;;3.83;2.23;;;17.60;99.90;;;;;;5027324;28;20514;-59
2023/09/20 02:03:59;;;;;;;3.27;1.90;;;17.60;99.90;;;;;;5028089;28;20562;-59
2023/09/20 02:06:27;;;;;;;2.23;1.90;;;17.60;99.90;;;;;;5030014;28;21110;-59
2023/09/20 02:08:55;;;;;;;4.90;2.23;;;17.60;99.90;;;;;;5030948;28;20482;-59
2023/09/20 02:11:24;;;;;;;4.70;1.90;;;17.60;99.90;;;;;;5027542;28;20964;-60
2023/09/20 02:13:53;;;;;;;3.13;1.70;;;17.60;99.90;;;;;;5030488;28;20961;-59
2023/09/20 02:16:21;;;;;;;2.97;1.83;;;17.60;99.90;;;;;;5029367;28;20499;-60
2023/09/20 02:18:51;;;;;;;4.50;2.50;;;17.60;99.90;;;;;;5032981;28;20530;-59
2023/09/20 02:21:19;;;;;;;3.30;1.90;;;17.60;99.90;;;;;;5030926;28;20522;-59
2023/09/20 02:23:47;;;;;;;6.03;2.50;;;17.60;99.90;;;;;;5027496;28;20471;-59
2023/09/20 02:26:16;;;;;;;2.83;1.77;;;17.60;99.90;;;;;;5029615;28;20517;-58
2023/09/20 02:28:45;;;;;;;2.33;1.67;;;17.70;99.90;;;;;;5028698;28;24200;-58
2023/09/20 02:31:13;;;;;;;2.23;2.00;;;17.70;99.90;;;;;;5030624;28;20523;-59
2023/09/20 02:33:42;;;;;;;3.10;2.20;;;17.70;99.90;;;;;;5027244;28;21093;-60
2023/09/20 02:36:12;;;;;;;5.17;3.07;;;17.70;99.90;;;;;;5027411;28;20580;-59
2023/09/20 02:38:40;;;;;;;6.63;2.20;;;17.70;99.90;;;;;;5024661;28;20553;-59
2023/09/20 02:41:09;;;;;;;4.23;2.20;;;17.70;99.90;;;;;;5026043;28;20512;-59
2023/09/20 02:43:38;;;;;;;3.23;2.37;;;17.70;99.90;;;;;;5026569;28;20470;-59
2023/09/20 02:46:08;;;;;;;4.27;2.57;;;17.60;99.90;;;;;;5033700;28;20867;-60
2023/09/20 02:48:36;;;;;;;4.20;2.10;;;17.60;99.90;;;;;;5034957;28;20971;-59
2023/09/20 02:51:05;;;;;;;2.77;2.00;;;17.60;99.90;;;;;;5035733;28;20471;-58
2023/09/20 02:53:35;;;;;;;3.50;2.10;;;17.60;99.90;;;;;;5033957;28;20563;-60
2023/09/20 02:56:05;;;;;;;2.50;2.00;;;17.60;99.90;;;;;;5033087;28;21093;-60
2023/09/20 02:58:33;;;;;;;4.30;2.10;;;17.60;99.90;;;;;;5032485;28;20501;-59
2023/09/20 03:01:02;;;;;;;3.20;2.20;;;17.60;99.90;;;;;;5035907;28;20479;-60
2023/09/20 03:03:31;;;;;;;4.60;2.63;;;17.60;99.90;;;;;;5026400;28;20478;-57
2023/09/20 03:06:09;;;;;;;5.20;2.30;;;17.60;99.90;;;;;;5034197;28;20936;-60
2023/09/20 03:08:41;;;;;;;4.13;2.00;;;17.60;99.90;;;;;;5031048;28;20466;-58
2023/09/20 03:11:10;;;;;;;4.30;2.40;;;17.60;99.90;;;;;;5028149;28;21369;-59
2023/09/20 03:13:38;;;;;;;3.23;2.00;;;17.50;99.90;;;;;;5033530;28;20546;-59
2023/09/20 03:16:06;;;;;;;2.60;1.93;;;17.50;99.90;;;;;;5030194;28;20522;-59
2023/09/20 03:18:35;;;;;;;5.47;2.30;;;17.50;99.90;;;;;;5032066;28;20521;-60
2023/09/20 03:21:07;;;;;;;2.90;1.87;;;17.50;99.90;;;;;;5034442;28;20489;-59
2023/09/20 03:23:37;;;;;;;2.93;2.40;;;17.50;99.90;;;;;;5033433;28;20578;-59
2023/09/20 03:26:06;;;;;;;2.67;2.43;;;17.50;99.90;;;;;;5037603;28;20863;-60
2023/09/20 03:28:35;;;;;;;3.20;1.90;;;17.50;99.90;;;;;;5037955;28;20470;-59
2023/09/20 03:31:07;;;;;;;5.13;2.23;;;17.50;99.90;;;;;;5037745;28;20498;-59
2023/09/20 03:33:38;;;;;;;2.43;2.23;;;17.50;99.90;;;;;;5035640;28;20867;-58
2023/09/20 03:36:15;;;;;;;2.43;2.23;;;17.50;99.90;;;;;;5036104;28;20517;-60
2023/09/20 03:38:43;;;;;;;3.17;2.30;;;17.50;99.90;;;;;;5031879;28;20487;-59
2023/09/20 03:41:12;;;;;;;4.77;2.33;;;17.50;99.90;;;;;;5028011;28;21177;-58
2023/09/20 03:43:40;;;;;;;4.03;2.17;;;17.50;99.90;;;;;;5032784;28;20475;-60
2023/09/20 03:46:09;;;;;;;3.93;2.10;;;17.50;99.90;;;;;;5032972;28;20490;-59
2023/09/20 03:48:39;;;;;;;6.60;2.50;;;17.50;99.90;;;;;;5033821;28;20468;-58
2023/09/20 03:51:15;;;;;;;3.27;2.47;;;17.60;99.90;;;;;;5033141;28;20561;-60
2023/09/20 03:53:43;;;;;;;8.23;3.00;;;17.50;99.90;;;;;;5033867;28;20564;-60
2023/09/20 03:56:12;;;;;;;3.20;2.10;;;17.50;99.90;;;;;;5032932;28;20485;-60
2023/09/20 03:58:40;;;;;;;2.60;2.00;;;17.60;99.90;;;;;;5031536;28;20490;-58
2023/09/20 04:01:08;;;;;;;2.90;2.60;;;17.60;99.90;;;;;;5030097;28;20482;-59
2023/09/20 04:03:36;;;;;;;4.27;2.57;;;17.60;99.90;;;;;;5035528;28;21002;-59
2023/09/20 04:06:06;;;;;;;4.47;2.40;;;17.60;99.90;;;;;;5031982;28;20583;-59
2023/09/20 04:08:34;;;;;;;5.53;2.60;;;17.60;99.90;;;;;;5032648;28;20479;-58
2023/09/20 04:11:04;;;;;;;3.23;2.40;;;17.60;99.90;;;;;;5030350;28;20492;-59
2023/09/20 04:13:32;;;;;;;3.93;2.13;;;17.60;99.90;;;;;;5028310;28;20779;-60
2023/09/20 04:16:05;;;;;;;3.50;2.10;;;17.60;99.90;;;;;;5033495;28;20564;-60
2023/09/20 04:18:34;;;;;;;2.60;2.13;;;17.70;99.90;;;;;;5031175;28;20512;-58
2023/09/20 04:21:02;;;;;;;5.20;2.20;;;17.70;99.90;;;;;;5028426;28;20537;-60
2023/09/20 04:23:32;;;;;;;5.70;2.43;;;17.60;99.90;;;;;;5034769;28;20493;-60
2023/09/20 04:26:00;;;;;;;5.67;2.60;;;17.60;99.90;;;;;;5031456;28;20505;-60
2023/09/20 04:28:28;;;;;;;3.30;2.40;;;17.60;99.90;;;;;;5029895;28;20873;-60
2023/09/20 04:30:57;;;;;;;4.70;2.53;;;17.60;99.90;;;;;;5027257;28;20562;-60
2023/09/20 04:33:25;;;;;;;4.33;2.23;;;17.70;99.90;;;;;;5028959;28;20481;-60
2023/09/20 04:35:54;;;;;;;3.27;2.80;;;17.60;99.90;;;;;;5032489;28;20702;-59
2023/09/20 04:38:22;;;;;;;3.67;2.23;;;17.60;99.90;;;;;;5025900;28;20881;-59
2023/09/20 04:40:52;;;;;;;5.23;2.80;;;17.70;99.90;;;;;;5033108;28;21026;-60
2023/09/20 04:43:23;;;;;;;3.43;2.50;;;17.70;99.90;;;;;;5027319;28;20600;-60
2023/09/20 04:45:51;;;;;;;4.60;2.70;;;17.70;99.90;;;;;;5030945;28;20561;-59
2023/09/20 04:48:20;;;;;;;4.40;2.27;;;17.70;99.90;;;;;;5032036;28;20873;-60
2023/09/20 04:50:50;;;;;;;7.10;2.70;;;17.70;99.90;;;;;;5027541;28;20474;-59
2023/09/20 04:53:18;;;;;;;5.97;2.93;;;17.70;99.90;;;;;;5019542;28;20475;-60
2023/09/20 04:55:46;;;;;;;3.87;3.10;;;17.70;99.90;;;;;;5032647;28;20869;-59
2023/09/20 04:58:17;;;;;;;5.03;2.73;;;17.70;99.90;;;;;;5028746;28;20568;-60
2023/09/20 05:00:46;;;;;;;3.93;2.50;;;17.70;99.90;;;;;;5020992;28;20565;-60
2023/09/20 05:03:15;;;;;;;8.67;3.47;;;17.70;99.90;;;;;;5020036;28;20494;-58
2023/09/20 05:05:45;;;;;;;4.33;3.03;;;17.80;99.90;;;;;;5028083;28;20846;-59
2023/09/20 05:08:15;;;;;;;5.03;3.00;;;17.80;99.90;;;;;;5025906;28;20569;-60
2023/09/20 05:10:43;;;;;;;3.80;2.47;;;17.80;99.90;;;;;;5028302;28;20567;-60
2023/09/20 05:13:11;;;;;;;4.47;3.10;;;17.90;99.90;;;;;;5024611;28;20568;-60
2023/09/20 05:15:40;;;;;;;4.20;2.70;;;17.90;99.90;;;;;;5019020;28;20892;-60
2023/09/20 05:18:09;;;;;;;3.23;2.70;;;17.90;99.90;;;;;;5020666;28;20649;-60
2023/09/20 05:20:37;;;;;;;5.93;3.00;;;17.90;99.90;;;;;;5030073;28;20475;-58
2023/09/20 05:23:05;;;;;;;2.33;2.20;;;18.00;99.90;;;;;;5032729;28;20478;-60
2023/09/20 05:25:34;;;;;;;7.30;2.60;;;18.00;99.90;;;;;;5024905;28;20628;-60
2023/09/20 05:28:02;;;;;;;4.10;2.73;;;18.00;99.90;;;;;;5027195;28;23960;-59
2023/09/20 05:30:30;;;;;;;3.73;2.80;;;18.00;99.90;;;;;;5031801;28;20657;-60
2023/09/20 05:32:59;;;;;;;3.23;2.70;;;18.00;99.90;;;;;;5033533;28;20563;-60
2023/09/20 05:35:27;;;;;;;6.03;2.60;;;18.00;99.90;;;;;;5032368;28;20498;-60
2023/09/20 05:37:56;;;;;;;3.60;2.50;;;18.00;99.90;;;;;;5032471;28;20817;-60
2023/09/20 05:40:27;;;;;;;5.13;3.00;;;18.00;99.90;;;;;;5036755;28;20563;-60
2023/09/20 05:42:55;;;;;;;4.60;2.57;;;18.00;99.90;;;;;;5027913;28;20943;-60
2023/09/20 05:45:26;;;;;;;3.87;2.47;;;18.00;99.90;;;;;;5029061;28;20478;-60
2023/09/20 05:47:54;;;;;;;5.90;2.73;;;18.00;99.90;;;;;;5023704;28;20470;-61
2023/09/20 05:50:33;;;;;;;10.50;3.00;;;18.00;99.90;;;;;;5031374;28;20516;-60
2023/09/20 05:53:01;;;;;;;5.23;3.07;;;17.90;99.90;;;;;;5029067;28;20482;-59
2023/09/20 05:55:32;;;;;;;5.00;2.30;;;18.00;99.90;;;;;;5030859;28;20486;-59
2023/09/20 05:58:01;;;;;;;5.43;3.20;;;18.00;99.90;;;;;;5034128;28;21175;-59
2023/09/20 06:00:30;;;;;;;2.80;2.50;;;18.00;99.90;;;;;;5031812;28;20463;-59
2023/09/20 06:02:58;;;;;;;5.70;3.00;;;18.00;99.90;;;;;;5029567;28;20483;-59
2023/09/20 06:05:28;;;;;;;5.53;2.80;;;18.00;99.90;;;;;;5033071;28;20475;-58
2023/09/20 06:07:57;;;;;;;4.53;2.73;;;18.00;99.90;;;;;;5034401;28;20558;-59
2023/09/20 06:10:25;;;;;;;4.17;2.87;;;18.00;99.90;;;;;;5033414;28;20488;-59
2023/09/20 06:12:53;;;;;;;3.07;2.47;;;18.10;99.90;;;;;;5033354;28;20486;-58
2023/09/20 06:15:22;;;;;;;3.17;2.47;;;18.20;99.90;;;;;;5022124;28;20578;-60
2023/09/20 06:17:51;;;;;;;4.80;3.27;;;18.20;99.90;;;;;;5029682;28;20526;-59
2023/09/20 06:20:20;;;;;;;4.70;2.43;;;18.20;99.90;;;;;;5034737;28;20491;-60
2023/09/20 06:22:50;;;;;;;4.83;2.90;;;18.20;99.90;;;;;;5034084;28;20490;-60
2023/09/20 06:25:20;;;;;;;4.90;2.30;;;18.30;99.90;;;;;;5026168;28;20466;-60
2023/09/20 06:27:50;;;;;;;4.20;2.10;;;18.30;99.90;;;;;;5033308;28;20869;-60
2023/09/20 06:30:20;;;;;;;5.57;2.77;;;18.30;99.90;;;;;;5031390;28;20469;-59
2023/09/20 06:32:49;;;;;;;4.83;2.67;;;18.30;99.90;;;;;;5032221;28;20480;-60
2023/09/20 06:35:20;;;;;;;5.03;2.30;;;18.30;99.90;;;;;;5030129;28;20467;-60
2023/09/20 06:37:51;;;;;;;4.37;2.33;;;18.40;99.90;;;;;;5034610;28;20486;-60
2023/09/20 06:40:22;;;;;;;3.97;2.37;;;18.40;99.90;;;;;;5027082;28;20865;-60
2023/09/20 06:42:51;;;;;;;3.97;2.40;;;18.40;99.90;;;;;;5028319;28;20486;-60
2023/09/20 06:45:19;;;;;;;5.17;2.80;;;18.40;99.90;;;;;;5028674;28;20790;-60
2023/09/20 06:47:47;;;;;;;2.77;2.50;;;18.40;99.90;;;;;;5028279;28;20934;-60
2023/09/20 06:50:15;;;;;;;3.53;2.50;;;18.40;99.90;;;;;;5035777;28;20532;-60
2023/09/20 06:52:43;;;;;;;3.93;3.03;;;18.40;99.90;;;;;;5030732;28;20513;-60
2023/09/20 06:55:13;;;;;;;5.20;2.50;;;18.50;99.90;;;;;;5027739;28;21202;-59
2023/09/20 06:57:42;;;;;;;3.17;2.40;;;18.50;99.90;;;;;;5034673;28;20544;-61
2023/09/20 07:00:21;;;;;;;3.53;2.37;;;18.50;99.90;;;;;;5029542;28;21304;-60
2023/09/20 07:02:55;;;;;;;3.10;2.43;;;18.50;99.90;;;;;;5027150;28;20819;-60
2023/09/20 07:05:27;;;;;;;5.03;2.60;;;18.50;99.90;;;;;;5022687;28;20463;-60
2023/09/20 07:07:55;;;;;;;4.83;2.97;;;18.40;99.90;;;;;;5024530;28;20470;-60
2023/09/20 07:10:26;;;;;;;5.03;3.23;;;18.50;99.90;;;;;;5028727;28;20466;-60
2023/09/20 07:12:54;;;;;;;3.27;2.43;;;18.50;99.90;;;;;;5034712;28;20482;-60
2023/09/20 07:15:25;;;;;;;3.03;2.27;;;18.50;99.90;;;;;;5034998;28;21006;-60
2023/09/20 07:18:00;;;;;;;4.40;3.10;;;18.50;99.90;;;;;;5031014;28;20475;-60
2023/09/20 07:20:29;;;;;;;4.60;2.90;;;18.60;99.90;;;;;;5028372;28;20520;-60
2023/09/20 07:22:58;;;;;;;3.20;2.80;;;18.60;99.90;;;;;;5029694;28;20486;-60
2023/09/20 07:25:29;;;;;;;3.23;2.70;;;18.60;99.90;;;;;;5034018;28;20482;-60
2023/09/20 07:27:58;;;;;;;5.27;2.97;;;18.60;99.90;;;;;;5034174;28;20551;-60
2023/09/20 07:30:31;;;;;;;4.47;2.80;;;18.60;99.90;;;;;;5029507;28;20922;-59
2023/09/20 07:33:02;;;;;;;4.03;2.80;;;18.60;99.90;;;;;;5036652;28;20517;-58
2023/09/20 07:35:46;;;;;;;5.17;2.60;;;18.70;99.90;;;;;;5030641;28;20528;-61
2023/09/20 07:38:25;;;;;;;4.60;3.30;;;18.60;99.90;;;;;;5033614;28;20987;-60
2023/09/20 07:41:02;;;;;;;5.57;3.30;;;18.70;99.90;;;;;;5035824;28;20490;-60
2023/09/20 07:43:30;;;;;;;3.73;2.60;;;18.70;99.90;;;;;;5035637;28;20561;-60
2023/09/20 07:46:05;;;;;;;2.97;2.30;;;18.80;99.90;;;;;;5038609;28;20490;-59
2023/09/20 07:48:37;;;;;;;3.13;2.83;;;18.70;99.90;;;;;;5034803;28;20962;-60
2023/09/20 07:51:10;;;;;;;4.40;2.63;;;18.80;99.90;;;;;;5037184;28;20570;-61
2023/09/20 07:53:42;;;;;;;5.00;2.97;;;18.80;99.90;;;;;;5039457;28;20543;-61
2023/09/20 07:56:13;;;;;;;4.10;2.80;;;18.80;99.90;;;;;;5039380;28;20495;-61
2023/09/20 07:58:44;;;;;;;3.67;2.70;;;18.80;99.90;;;;;;5039731;28;20524;-60
2023/09/20 08:01:18;;;;;;;4.57;2.43;;;18.80;99.90;;;;;;5035763;28;20478;-61
2023/09/20 08:03:50;;;;;;;3.97;2.80;;;18.90;99.90;;;;;;5037255;28;20493;-61
2023/09/20 08:06:22;;;;;;;6.03;2.60;;;18.90;99.90;;;;;;5039601;28;20505;-62
2023/09/20 08:08:50;;;;;;;3.57;2.50;;;19.00;99.90;;;;;;5036573;28;20471;-61
2023/09/20 08:11:19;;;;;;;5.53;3.13;;;19.00;99.90;;;;;;5035884;28;20539;-61
2023/09/20 08:13:50;;;;;;;3.30;2.30;;;19.00;99.90;;;;;;5039529;28;20474;-61
2023/09/20 08:16:19;;;;;;;3.80;2.50;;;19.00;99.90;;;;;;5036425;28;20575;-61
2023/09/20 08:19:04;;;;;;;4.67;2.67;;;19.10;99.90;;;;;;5032791;28;20808;-61
2023/09/20 08:21:34;;;;;;;3.70;2.70;;;19.20;99.90;;;;;;5035344;28;20514;-61
2023/09/20 09:00:22;;;;;;;3.47;2.50;;;20.10;99.90;;;;;;5036272;28;20498;-62
2023/09/20 09:02:52;;;;;;;3.30;1.97;;;20.20;99.90;;;;;;5035304;28;20527;-62
2023/09/20 09:05:23;;;;;;;3.03;2.50;;;20.20;99.90;;;;;;5034315;28;20467;-61
2023/09/20 09:07:51;;;;;;;2.40;2.20;;;20.30;99.90;;;;;;5036248;28;20570;-59
2023/09/20 09:10:19;;;;;;;3.37;2.00;;;20.40;99.90;;;;;;5037344;28;20463;-59
2023/09/20 09:12:48;;;;;;;4.37;2.07;;;20.40;99.90;;;;;;5032929;28;20590;-59
2023/09/20 09:15:17;;;;;;;4.93;2.43;;;20.40;99.90;;;;;;5037367;28;20824;-59
2023/09/20 09:17:47;;;;;;;2.90;2.17;;;20.30;99.90;;;;;;5033717;28;20478;-59
2023/09/20 09:20:16;;;;;;;5.43;1.87;;;20.30;99.90;;;;;;5032639;28;20647;-58
2023/09/20 09:22:45;;;;;;;2.80;2.00;;;20.40;99.90;;;;;;5033570;28;20805;-59
2023/09/20 09:25:14;;;;;;;2.53;2.30;;;20.40;99.90;;;;;;5033786;28;20559;-60
2023/09/20 09:27:43;;;;;;;2.87;2.10;;;20.50;99.90;;;;;;5032314;28;20960;-58
2023/09/20 09:30:13;;;;;;;2.93;2.20;;;20.40;99.90;;;;;;5034582;28;20463;-58
2023/09/20 09:32:45;;;;;;;3.60;2.20;;;20.50;99.90;;;;;;5034735;28;20490;-59
2023/09/20 09:35:15;;;;;;;3.47;2.40;;;20.50;99.90;;;;;;5032525;28;20486;-59
2023/09/20 09:37:48;;;;;;;3.80;2.07;;;20.50;99.90;;;;;;5032741;28;20474;-60
2023/09/20 09:40:18;;;;;;;2.50;1.80;;;20.50;99.90;;;;;;5034939;28;20589;-59
2023/09/20 09:42:48;;;;;;;2.60;1.80;;;20.50;99.90;;;;;;5034366;28;20988;-60
2023/09/20 09:45:30;;;;;;;2.40;2.20;;;20.60;99.90;;;;;;5033340;28;20462;-58
2023/09/20 09:48:01;;;;;;;3.37;2.20;;;20.70;99.90;;;;;;5032190;28;20554;-60
2023/09/20 09:54:13;;;;;;;3.03;2.00;;;20.80;99.90;;;;;;5012900;28;20924;-59
2023/09/20 09:56:42;;;;;;;5.57;2.50;;;20.80;99.90;;;;;;5032703;28;20509;-60
2023/09/20 09:59:10;;;;;;;3.40;2.50;;;20.90;99.90;;;;;;5035892;28;20491;-60
2023/09/20 10:01:40;;;;;;;7.20;2.73;;;20.80;99.90;;;;;;5038293;28;20479;-59
2023/09/20 10:04:11;;;;;;;3.20;2.27;;;20.80;99.90;;;;;;5037114;28;20494;-59
2023/09/20 10:06:50;;;;;;;3.67;2.43;;;20.80;99.90;;;;;;5039209;28;20563;-59
2023/09/20 10:09:25;;;;;;;2.83;2.10;;;20.90;99.90;;;;;;5037742;28;20474;-59
2023/09/20 10:11:53;;;;;;;3.10;1.77;;;20.80;99.90;;;;;;5036049;28;20576;-59
2023/09/20 10:14:22;;;;;;;1.70;1.60;;;20.80;99.90;;;;;;5039568;28;20466;-60
2023/09/20 10:16:50;;;;;;;4.13;2.00;;;20.80;99.90;;;;;;5024321;28;20487;-59
2023/09/20 10:19:20;;;;;;;2.50;1.73;;;20.80;99.90;;;;;;5037914;28;20521;-59
2023/09/20 10:22:02;;;;;;;2.60;2.00;;;20.90;99.90;;;;;;5038827;28;20510;-58
2023/09/20 10:24:31;;;;;;;3.23;1.90;;;20.90;99.90;;;;;;5036182;28;20495;-60
2023/09/20 10:27:03;;;;;;;3.70;1.90;;;21.00;99.90;;;;;;5035698;28;20514;-60
2023/09/20 10:29:33;;;;;;;5.50;2.70;;;21.00;99.90;;;;;;5036745;28;20610;-60
2023/09/20 10:32:14;;;;;;;5.03;2.17;;;21.10;99.90;;;;;;5036754;28;20522;-59
2023/09/20 10:35:19;;;;;;;3.83;2.33;;;21.10;99.90;;;;;;5038816;28;20892;-61
2023/09/20 10:38:20;;;;;;;4.87;2.80;;;21.00;99.90;;;;;;5036630;28;20637;-61
2023/09/20 10:41:03;;;;;;;4.13;2.50;;;21.10;99.90;;;;;;5034869;28;20502;-60
2023/09/20 10:43:50;;;;;;;5.73;2.60;;;21.20;99.90;;;;;;5037781;28;20466;-61
2023/09/20 10:46:22;;;;;;;4.97;2.73;;;21.50;99.90;;;;;;5035235;28;20493;-61
2023/09/20 10:48:52;;;;;;;3.20;2.60;;;21.60;99.90;;;;;;5034745;28;20601;-60
2023/09/20 10:51:54;;;;;;;5.10;2.73;;;21.60;99.90;;;;;;5036043;28;20495;-60
2023/09/20 10:54:29;;;;;;;2.50;2.30;;;21.70;99.90;;;;;;5036155;28;21002;-60
2023/09/20 10:57:03;;;;;;;3.67;2.53;;;21.70;99.90;;;;;;5036658;28;20501;-61
2023/09/20 10:59:32;;;;;;;5.10;2.63;;;21.70;99.90;;;;;;5032759;28;21105;-61
2023/09/20 11:02:09;;;;;;;4.43;3.10;;;21.70;99.90;;;;;;5034648;28;20487;-59
2023/09/20 11:04:38;;;;;;;5.43;2.90;;;21.80;99.90;;;;;;5036667;28;20827;-61
2023/09/20 11:07:09;;;;;;;3.40;2.63;;;22.00;99.90;;;;;;5039016;28;20494;-61
2023/09/20 11:09:39;;;;;;;3.77;2.80;;;22.10;99.90;;;;;;5034453;28;20554;-61
2023/09/20 11:12:08;;;;;;;5.57;2.60;;;22.20;99.90;;;;;;5039266;28;20513;-59
2023/09/20 11:14:39;;;;;;;5.13;3.00;;;22.30;99.90;;;;;;5042426;28;20494;-61
2023/09/20 11:17:16;;;;;;;4.20;2.90;;;22.40;99.90;;;;;;5029715;28;20494;-60
2023/09/20 11:19:44;;;;;;;4.37;3.00;;;22.40;99.90;;;;;;5029765;28;20470;-60
2023/09/20 11:22:16;;;;;;;6.00;3.67;;;22.40;99.90;;;;;;5035032;28;21089;-59
2023/09/20 11:24:44;;;;;;;5.20;3.90;;;22.20;99.90;;;;;;5035812;28;20496;-61
2023/09/20 11:27:14;;;;;;;4.40;3.10;;;22.10;99.90;;;;;;5031573;28;20819;-60
2023/09/20 11:29:43;;;;;;;4.40;2.80;;;22.20;99.90;;;;;;5030512;28;20493;-60
2023/09/20 11:32:14;;;;;;;4.03;2.93;;;22.30;99.90;;;;;;5035156;28;21131;-61
2023/09/20 11:34:43;;;;;;;4.03;3.40;;;22.40;99.90;;;;;;5032628;28;20479;-64
2023/09/20 11:37:16;;;;;;;3.47;2.80;;;22.50;99.90;;;;;;5040056;28;20568;-65
2023/09/20 11:39:47;;;;;;;5.30;3.57;;;22.60;99.90;;;;;;5039165;28;20604;-66
2023/09/20 11:42:26;;;;;;;3.83;3.03;;;22.60;99.90;;;;;;5043831;28;20990;-65
2023/09/20 11:44:58;;;;;;;3.90;3.03;;;22.80;99.90;;;;;;5042151;28;20478;-64
2023/09/20 11:47:48;;;;;;;4.07;3.23;;;22.80;99.90;;;;;;5038135;28;20454;-65
2023/09/20 11:50:17;;;;;;;4.10;2.90;;;22.90;99.90;;;;;;5038152;28;20497;-66
2023/09/20 11:52:48;;;;;;;4.53;2.87;;;22.90;99.90;;;;;;5043273;28;20490;-66
2023/09/20 11:55:19;;;;;;;4.80;2.70;;;23.00;99.90;;;;;;5041345;28;20478;-67
2023/09/20 11:57:48;;;;;;;5.93;3.10;;;23.20;99.90;;;;;;5035888;28;20486;-68
2023/09/20 12:00:17;;;;;;;4.97;3.50;;;23.30;99.90;;;;;;5039938;28;20959;-63
2023/09/20 12:02:45;;;;;;;4.27;3.03;;;23.30;99.90;;;;;;5039108;28;20486;-65
2023/09/20 12:05:14;;;;;;;5.83;3.13;;;23.40;99.90;;;;;;5034285;28;20478;-61
2023/09/20 12:07:55;;;;;;;4.37;2.90;;;23.50;99.90;;;;;;5034470;28;20477;-61
2023/09/20 12:10:23;;;;;;;4.77;2.73;;;23.60;99.90;;;;;;5032434;28;20487;-62
2023/09/20 12:12:53;;;;;;;3.30;2.60;;;23.70;99.90;;;;;;5024138;28;20513;-61
2023/09/20 12:15:23;;;;;;;3.70;2.80;;;24.00;99.90;;;;;;5039844;28;20552;-61
2023/09/20 12:17:53;;;;;;;2.77;2.40;;;24.30;99.90;;;;;;5037696;28;21126;-61
2023/09/20 12:20:22;;;;;;;3.07;2.70;;;24.60;99.90;;;;;;5040046;28;20553;-62
2023/09/20 12:22:50;;;;;;;3.10;2.53;;;24.80;99.90;;;;;;5040965;28;20486;-62
2023/09/20 12:25:20;;;;;;;3.50;2.63;;;24.90;99.90;;;;;;5042736;28;20474;-62
2023/09/20 12:27:48;;;;;;;3.43;2.50;;;24.80;99.90;;;;;;5036620;28;20496;-61
2023/09/20 12:30:17;;;;;;;5.17;2.70;;;24.90;99.90;;;;;;5039991;28;20467;-60
2023/09/20 12:32:46;;;;;;;3.50;2.67;;;25.20;99.90;;;;;;5031130;28;20475;-61
2023/09/20 12:35:14;;;;;;;3.23;2.93;;;25.50;99.90;;;;;;5038512;28;20558;-61
2023/09/20 12:37:42;;;;;;;3.67;2.33;;;25.90;99.90;;;;;;5044978;28;20561;-60
2023/09/20 12:40:11;;;;;;;2.80;2.50;;;26.40;99.90;;;;;;5042622;28;20941;-61
2023/09/20 12:42:43;;;;;;;2.73;2.43;;;27.00;99.90;;;;;;5043144;28;20514;-60
2023/09/20 12:45:14;;;;;;;4.77;2.70;;;27.60;99.90;;;;;;5039254;28;20577;-62
2023/09/20 12:47:42;;;;;;;3.27;2.70;;;28.30;99.90;;;;;;5032578;28;20498;-62
2023/09/20 12:50:12;;;;;;;2.73;2.50;;;29.30;98.30;;;;;;5033094;28;21173;-62
2023/09/20 12:52:43;;;;;;;3.30;3.00;;;30.00;95.50;;;;;;5029465;28;20856;-62
2023/09/20 12:55:13;;;;;;;3.00;2.77;;;30.80;92.40;;;;;;5038972;28;21021;-62
2023/09/20 12:57:43;;;;;;;3.23;2.70;;;30.70;89.20;;;;;;5038103;28;21010;-62
2023/09/20 13:00:16;;;;;;;5.00;3.07;;;30.10;86.90;;;;;;5034481;28;20574;-62
2023/09/20 13:03:07;;;;;;;3.40;3.10;;;29.10;90.60;;;;;;5030476;28;20808;-62
2023/09/20 13:05:37;;;;;;;4.43;3.20;;;29.10;92.30;;;;;;5037066;28;20502;-62
2023/09/20 13:08:07;;;;;;;5.80;2.77;;;30.40;88.80;;;;;;5034377;28;20474;-63
2023/09/20 13:10:34;;;;;;;4.07;3.07;;;31.00;74.80;;;;;;5033730;28;20470;-62
2023/09/20 13:13:08;;;;;;;4.53;3.50;;;31.00;74.30;;;;;;5025997;28;20514;-62
2023/09/20 13:15:39;;;;;;;3.50;2.90;;;31.10;71.40;;;;;;5036503;28;20490;-63
2023/09/20 13:18:09;;;;;;;3.10;2.70;;;31.30;69.90;;;;;;5039126;28;21009;-63
2023/09/20 13:20:41;;;;;;;3.87;2.70;;;31.20;68.60;;;;;;5038869;28;21038;-61
2023/09/20 13:23:09;;;;;;;2.83;2.63;;;32.30;69.90;;;;;;5040589;28;20879;-62
2023/09/20 13:25:39;;;;;;;2.47;2.33;;;33.10;56.10;;;;;;5035850;28;20562;-61
2023/09/20 13:28:09;;;;;;;2.87;2.43;;;32.20;57.20;;;;;;5040144;28;20987;-63
2023/09/20 13:30:40;;;;;;;2.60;2.33;;;32.50;61.50;;;;;;5029520;28;20488;-61
2023/09/20 13:33:10;;;;;;;3.90;2.90;;;32.20;62.80;;;;;;5034473;28;20489;-62
2023/09/20 13:35:39;;;;;;;3.30;2.57;;;31.70;61.00;;;;;;5035035;28;20497;-61
2023/09/20 13:38:07;;;;;;;2.77;2.50;;;31.20;61.70;;;;;;5026281;28;20466;-60
2023/09/20 13:40:38;;;;;;;2.73;2.50;;;30.20;66.50;;;;;;5035493;28;20528;-62
2023/09/20 13:43:07;;;;;;;4.30;2.67;;;29.80;70.30;;;;;;5036905;28;20518;-62
2023/09/20 13:45:37;;;;;;;2.40;2.30;;;30.10;75.40;;;;;;5039375;28;20526;-62